sensor_id;sensor_type;location;lat;lon;timestamp;pressure;altitude;pressure_sealevel;temperature;humidity
58979;BME280;44763;50.464;30.612;2022-09-09T00:04:54;100920.98;;;10.18;60.26
58979;BME280;44763;50.464;30.612;2022-09-09T00:07:25;100919.33;;;10.13;60.56
58979;BME280;44763;50.464;30.612;2022-09-09T00:18:24;100915.05;;;9.96;61.24
58979;BME280;44763;50.464;30.612;2022-09-09T00:21:06;100920.55;;;9.94;61.45
58979;BME280;44763;50.464;30.612;2022-09-09T00:23:55;100920.91;;;9.91;61.56
58979;BME280;44763;50.464;30.612;2022-09-09T00:31:41;100926.73;;;9.82;62.05
58979;BME280;44763;50.464;30.612;2022-09-09T00:34:18;100928.06;;;9.82;62.16
58979;BME280;44763;50.464;30.612;2022-09-09T00:36:50;100935.70;;;9.81;62.27
58979;BME280;44763;50.464;30.612;2022-09-09T00:42:16;100927.08;;;9.71;62.48
58979;BME280;44763;50.464;30.612;2022-09-09T00:45:02;100944.38;;;9.71;62.54
58979;BME280;44763;50.464;30.612;2022-09-09T00:47:51;100938.72;;;9.70;62.60
58979;BME280;44763;50.464;30.612;2022-09-09T00:56:06;100944.55;;;9.65;62.83
58979;BME280;44763;50.464;30.612;2022-09-09T00:58:35;100948.04;;;9.66;62.83
58979;BME280;44763;50.464;30.612;2022-09-09T01:01:08;100947.88;;;9.67;62.76
58979;BME280;44763;50.464;30.612;2022-09-09T01:03:49;100943.22;;;9.69;62.76
58979;BME280;44763;50.464;30.612;2022-09-09T01:06:31;100959.02;;;9.71;62.69
58979;BME280;44763;50.464;30.612;2022-09-09T01:14:58;100956.02;;;9.70;62.70
58979;BME280;44763;50.464;30.612;2022-09-09T01:17:44;100955.71;;;9.65;62.86
58979;BME280;44763;50.464;30.612;2022-09-09T01:26:37;100962.70;;;9.53;63.45
58979;BME280;44763;50.464;30.612;2022-09-09T01:29:02;100965.52;;;9.48;63.50
58979;BME280;44763;50.464;30.612;2022-09-09T01:31:40;100971.52;;;9.46;63.74
58979;BME280;44763;50.464;30.612;2022-09-09T01:34:14;100964.20;;;9.44;63.95
58979;BME280;44763;50.464;30.612;2022-09-09T01:39:20;100958.38;;;9.40;64.23
58979;BME280;44763;50.464;30.612;2022-09-09T01:41:49;100968.00;;;9.37;64.31
58979;BME280;44763;50.464;30.612;2022-09-09T01:44:19;100959.52;;;9.33;64.58
58979;BME280;44763;50.464;30.612;2022-09-09T01:46:46;100957.17;;;9.30;64.57
58979;BME280;44763;50.464;30.612;2022-09-09T01:49:17;100955.53;;;9.29;64.73
58979;BME280;44763;50.464;30.612;2022-09-09T01:51:43;100951.03;;;9.26;64.80
58979;BME280;44763;50.464;30.612;2022-09-09T01:54:13;100945.71;;;9.22;65.05
58979;BME280;44763;50.464;30.612;2022-09-09T02:02:18;100961.48;;;9.11;65.61
58979;BME280;44763;50.464;30.612;2022-09-09T02:05:01;100943.37;;;9.06;65.72
58979;BME280;44763;50.464;30.612;2022-09-09T02:07:49;100944.66;;;9.02;65.85
58979;BME280;44763;50.464;30.612;2022-09-09T02:10:37;100951.66;;;8.99;65.99
58979;BME280;44763;50.464;30.612;2022-09-09T02:13:21;100957.95;;;8.98;66.04
58979;BME280;44763;50.464;30.612;2022-09-09T02:16:07;100956.47;;;8.95;66.16
58979;BME280;44763;50.464;30.612;2022-09-09T02:21:57;100966.23;;;8.91;66.30
58979;BME280;44763;50.464;30.612;2022-09-09T02:26:31;100960.92;;;8.91;66.55
58979;BME280;44763;50.464;30.612;2022-09-09T02:29:03;100965.56;;;8.85;66.61
58979;BME280;44763;50.464;30.612;2022-09-09T02:31:31;100958.60;;;8.84;66.64
58979;BME280;44763;50.464;30.612;2022-09-09T02:34:05;100961.06;;;8.81;66.62
58979;BME280;44763;50.464;30.612;2022-09-09T02:36:37;100961.57;;;8.81;66.75
58979;BME280;44763;50.464;30.612;2022-09-09T02:39:07;100966.06;;;8.80;66.92
58979;BME280;44763;50.464;30.612;2022-09-09T02:41:37;100953.91;;;8.77;66.86
58979;BME280;44763;50.464;30.612;2022-09-09T02:44:15;100960.55;;;8.77;66.87
58979;BME280;44763;50.464;30.612;2022-09-09T02:50:11;100968.36;;;8.75;67.01
58979;BME280;44763;50.464;30.612;2022-09-09T03:02:20;100955.66;;;8.56;67.68
58979;BME280;44763;50.464;30.612;2022-09-09T03:04:48;100949.50;;;8.48;68.10
58979;BME280;44763;50.464;30.612;2022-09-09T03:07:18;100948.48;;;8.45;68.13
58979;BME280;44763;50.464;30.612;2022-09-09T03:09:45;100951.30;;;8.43;68.29
58979;BME280;44763;50.464;30.612;2022-09-09T03:12:12;100960.09;;;8.44;68.39
58979;BME280;44763;50.464;30.612;2022-09-09T03:14:39;100960.09;;;8.44;68.43
58979;BME280;44763;50.464;30.612;2022-09-09T03:17:07;100964.27;;;8.46;68.48
58979;BME280;44763;50.464;30.612;2022-09-09T03:19:36;100965.77;;;8.49;68.44
58979;BME280;44763;50.464;30.612;2022-09-09T03:22:03;100965.61;;;8.50;68.40
58979;BME280;44763;50.464;30.612;2022-09-09T03:24:31;100963.13;;;8.53;68.37
58979;BME280;44763;50.464;30.612;2022-09-09T03:26:57;100970.13;;;8.58;68.25
58979;BME280;44763;50.464;30.612;2022-09-09T03:29:23;100967.81;;;8.59;68.21
58979;BME280;44763;50.464;30.612;2022-09-09T03:31:51;100966.66;;;8.62;68.09
58979;BME280;44763;50.464;30.612;2022-09-09T03:34:17;100970.80;;;8.60;68.17
58979;BME280;44763;50.464;30.612;2022-09-09T03:36:44;100977.45;;;8.64;68.14
58979;BME280;44763;50.464;30.612;2022-09-09T03:39:10;100976.48;;;8.69;68.00
58979;BME280;44763;50.464;30.612;2022-09-09T03:41:38;100977.34;;;8.74;67.90
58979;BME280;44763;50.464;30.612;2022-09-09T03:44:04;100978.50;;;8.80;67.77
58979;BME280;44763;50.464;30.612;2022-09-09T03:46:33;100973.73;;;8.87;67.63
58979;BME280;44763;50.464;30.612;2022-09-09T03:48:59;100988.88;;;8.95;67.53
58979;BME280;44763;50.464;30.612;2022-09-09T03:51:26;100986.94;;;9.18;67.32
58979;BME280;44763;50.464;30.612;2022-09-09T03:53:52;100977.34;;;9.53;66.43
58979;BME280;44763;50.464;30.612;2022-09-09T03:56:20;100981.48;;;9.93;65.17
58979;BME280;44763;50.464;30.612;2022-09-09T03:58:47;100983.28;;;10.17;63.79
58979;BME280;44763;50.464;30.612;2022-09-09T04:01:14;100978.20;;;10.47;63.16
58979;BME280;44763;50.464;30.612;2022-09-09T04:03:43;100980.03;;;10.90;61.87
58979;BME280;44763;50.464;30.612;2022-09-09T04:06:11;100972.02;;;11.44;60.31
58979;BME280;44763;50.464;30.612;2022-09-09T04:08:41;100967.57;;;11.98;58.39
58979;BME280;44763;50.464;30.612;2022-09-09T04:11:08;100962.83;;;12.38;56.21
58979;BME280;44763;50.464;30.612;2022-09-09T04:13:37;100955.16;;;12.50;54.96
58979;BME280;44763;50.464;30.612;2022-09-09T04:16:07;100958.48;;;12.37;54.60
58979;BME280;44763;50.464;30.612;2022-09-09T04:18:36;100959.77;;;12.41;54.48
58979;BME280;44763;50.464;30.612;2022-09-09T04:21:02;100977.23;;;12.88;53.91
58979;BME280;44763;50.464;30.612;2022-09-09T04:23:30;100980.61;;;13.22;52.10
58979;BME280;44763;50.464;30.612;2022-09-09T04:25:58;100981.69;;;13.17;52.14
58979;BME280;44763;50.464;30.612;2022-09-09T04:28:28;100980.57;;;13.01;52.08
58979;BME280;44763;50.464;30.612;2022-09-09T04:30:56;100982.58;;;12.77;52.53
58979;BME280;44763;50.464;30.612;2022-09-09T04:33:24;100989.52;;;12.42;53.14
58979;BME280;44763;50.464;30.612;2022-09-09T04:35:54;100997.95;;;12.01;54.10
58979;BME280;44763;50.464;30.612;2022-09-09T04:38:22;101003.73;;;11.66;55.20
58979;BME280;44763;50.464;30.612;2022-09-09T04:40:51;101014.17;;;11.53;56.07
58979;BME280;44763;50.464;30.612;2022-09-09T04:43:20;101011.97;;;11.80;56.10
58979;BME280;44763;50.464;30.612;2022-09-09T04:45:49;101008.58;;;12.39;55.42
58979;BME280;44763;50.464;30.612;2022-09-09T04:48:16;101010.91;;;12.82;53.72
58979;BME280;44763;50.464;30.612;2022-09-09T04:50:42;101017.73;;;13.11;53.10
58979;BME280;44763;50.464;30.612;2022-09-09T04:53:10;101018.83;;;13.63;52.16
58979;BME280;44763;50.464;30.612;2022-09-09T04:55:38;101009.36;;;14.46;50.18
58979;BME280;44763;50.464;30.612;2022-09-09T04:58:05;101003.84;;;15.33;48.17
58979;BME280;44763;50.464;30.612;2022-09-09T05:00:35;101003.52;;;15.96;45.39
58979;BME280;44763;50.464;30.612;2022-09-09T05:03:06;101003.23;;;16.44;44.17
58979;BME280;44763;50.464;30.612;2022-09-09T05:05:35;101008.70;;;16.89;43.10
58979;BME280;44763;50.464;30.612;2022-09-09T05:08:04;101019.34;;;17.39;41.53
58979;BME280;44763;50.464;30.612;2022-09-09T05:10:32;101014.70;;;17.84;40.99
58979;BME280;44763;50.464;30.612;2022-09-09T05:12:59;101011.89;;;18.69;39.13
58979;BME280;44763;50.464;30.612;2022-09-09T05:15:28;101011.89;;;18.69;39.13
58979;BME280;44763;50.464;30.612;2022-09-09T05:17:58;101002.52;;;18.90;38.41
58979;BME280;44763;50.464;30.612;2022-09-09T05:20:24;100987.27;;;19.05;37.47
58979;BME280;44763;50.464;30.612;2022-09-09T05:22:54;100997.31;;;19.07;37.66
58979;BME280;44763;50.464;30.612;2022-09-09T05:25:23;101004.31;;;19.26;37.23
58979;BME280;44763;50.464;30.612;2022-09-09T05:27:52;100989.59;;;19.32;36.69
58979;BME280;44763;50.464;30.612;2022-09-09T05:30:20;100978.97;;;19.39;36.58
58979;BME280;44763;50.464;30.612;2022-09-09T05:32:49;100966.72;;;19.46;36.90
58979;BME280;44763;50.464;30.612;2022-09-09T05:35:16;100974.97;;;19.63;36.44
58979;BME280;44763;50.464;30.612;2022-09-09T05:37:44;100978.38;;;19.91;35.78
58979;BME280;44763;50.464;30.612;2022-09-09T05:40:12;100980.36;;;20.08;35.48
58979;BME280;44763;50.464;30.612;2022-09-09T05:42:40;100971.23;;;19.76;35.64
58979;BME280;44763;50.464;30.612;2022-09-09T05:45:08;100977.45;;;19.22;36.11
58979;BME280;44763;50.464;30.612;2022-09-09T05:47:36;100976.42;;;18.84;37.05
58979;BME280;44763;50.464;30.612;2022-09-09T05:50:04;100978.22;;;18.81;37.40
58979;BME280;44763;50.464;30.612;2022-09-09T05:52:31;100983.94;;;18.82;37.44
58979;BME280;44763;50.464;30.612;2022-09-09T05:54:59;100991.02;;;18.95;37.07
58979;BME280;44763;50.464;30.612;2022-09-09T05:57:25;100980.45;;;19.02;37.18
58979;BME280;44763;50.464;30.612;2022-09-09T05:59:51;100981.92;;;19.08;37.59
58979;BME280;44763;50.464;30.612;2022-09-09T06:02:17;100981.09;;;19.49;36.58
58979;BME280;44763;50.464;30.612;2022-09-09T06:04:44;100985.30;;;19.87;35.81
58979;BME280;44763;50.464;30.612;2022-09-09T06:07:11;100981.62;;;20.02;35.67
58979;BME280;44763;50.464;30.612;2022-09-09T06:09:38;100983.53;;;19.81;35.68
58979;BME280;44763;50.464;30.612;2022-09-09T06:12:06;100997.52;;;19.57;35.80
58979;BME280;44763;50.464;30.612;2022-09-09T06:14:35;100998.22;;;19.10;36.23
58979;BME280;44763;50.464;30.612;2022-09-09T06:17:03;101006.93;;;18.66;37.21
58979;BME280;44763;50.464;30.612;2022-09-09T06:19:30;101006.05;;;18.63;37.84
58979;BME280;44763;50.464;30.612;2022-09-09T06:21:58;101001.69;;;18.71;37.63
58979;BME280;44763;50.464;30.612;2022-09-09T06:24:26;100994.50;;;18.65;37.88
58979;BME280;44763;50.464;30.612;2022-09-09T06:26:53;101001.09;;;18.51;37.78
58979;BME280;44763;50.464;30.612;2022-09-09T06:29:21;101012.09;;;18.40;38.05
58979;BME280;44763;50.464;30.612;2022-09-09T06:31:48;101007.67;;;18.45;38.09
58979;BME280;44763;50.464;30.612;2022-09-09T06:34:16;100997.20;;;18.65;38.15
58979;BME280;44763;50.464;30.612;2022-09-09T06:36:45;101005.29;;;18.83;37.87
58979;BME280;44763;50.464;30.612;2022-09-09T06:39:11;101006.62;;;19.02;37.37
58979;BME280;44763;50.464;30.612;2022-09-09T06:41:39;101002.84;;;19.21;36.88
58979;BME280;44763;50.464;30.612;2022-09-09T06:44:07;101006.81;;;19.19;36.69
58979;BME280;44763;50.464;30.612;2022-09-09T06:46:35;101009.02;;;19.10;36.57
58979;BME280;44763;50.464;30.612;2022-09-09T06:49:01;101000.33;;;19.08;36.31
58979;BME280;44763;50.464;30.612;2022-09-09T06:51:30;100999.22;;;18.88;37.11
58979;BME280;44763;50.464;30.612;2022-09-09T06:54:03;100999.30;;;18.63;37.41
58979;BME280;44763;50.464;30.612;2022-09-09T06:56:38;100994.47;;;18.28;37.96
58979;BME280;44763;50.464;30.612;2022-09-09T06:59:11;101008.08;;;18.05;38.73
58979;BME280;44763;50.464;30.612;2022-09-09T07:01:40;101012.36;;;17.72;39.18
58979;BME280;44763;50.464;30.612;2022-09-09T07:04:09;101015.80;;;17.38;39.71
58979;BME280;44763;50.464;30.612;2022-09-09T07:06:41;101014.75;;;17.07;40.55
58979;BME280;44763;50.464;30.612;2022-09-09T07:09:14;101018.55;;;16.80;41.12
58979;BME280;44763;50.464;30.612;2022-09-09T07:11:47;101019.45;;;16.53;41.57
58979;BME280;44763;50.464;30.612;2022-09-09T07:14:16;101030.78;;;16.33;42.08
58979;BME280;44763;50.464;30.612;2022-09-09T07:16:45;101026.36;;;16.03;42.96
58979;BME280;44763;50.464;30.612;2022-09-09T07:19:13;101026.36;;;16.03;42.96
58979;BME280;44763;50.464;30.612;2022-09-09T07:21:41;101031.96;;;15.94;42.89
58979;BME280;44763;50.464;30.612;2022-09-09T07:24:10;101028.14;;;15.86;43.23
58979;BME280;44763;50.464;30.612;2022-09-09T07:26:38;101026.25;;;15.80;43.50
58979;BME280;44763;50.464;30.612;2022-09-09T07:29:06;101037.23;;;15.79;43.65
58979;BME280;44763;50.464;30.612;2022-09-09T07:31:35;101040.33;;;15.75;43.55
58979;BME280;44763;50.464;30.612;2022-09-09T07:34:05;101034.90;;;15.69;43.49
58979;BME280;44763;50.464;30.612;2022-09-09T07:36:34;101036.97;;;15.60;43.74
58979;BME280;44763;50.464;30.612;2022-09-09T07:39:11;101030.53;;;15.48;44.05
58979;BME280;44763;50.464;30.612;2022-09-09T07:41:43;101033.22;;;15.41;44.24
58979;BME280;44763;50.464;30.612;2022-09-09T07:44:14;101018.74;;;15.35;44.40
58979;BME280;44763;50.464;30.612;2022-09-09T07:46:43;101019.53;;;15.29;44.69
58979;BME280;44763;50.464;30.612;2022-09-09T07:49:11;101028.83;;;15.27;44.71
58979;BME280;44763;50.464;30.612;2022-09-09T07:51:40;101042.66;;;15.24;44.49
58979;BME280;44763;50.464;30.612;2022-09-09T07:54:11;101027.55;;;15.16;44.19
58979;BME280;44763;50.464;30.612;2022-09-09T07:56:41;101018.45;;;15.10;43.99
58979;BME280;44763;50.464;30.612;2022-09-09T07:59:08;101020.80;;;15.03;44.33
58979;BME280;44763;50.464;30.612;2022-09-09T08:01:39;101012.11;;;14.94;44.07
58979;BME280;44763;50.464;30.612;2022-09-09T08:04:11;101022.72;;;14.91;43.90
58979;BME280;44763;50.464;30.612;2022-09-09T08:06:51;101023.05;;;14.92;43.92
58979;BME280;44763;50.464;30.612;2022-09-09T08:09:16;101039.88;;;14.97;43.47
58979;BME280;44763;50.464;30.612;2022-09-09T08:11:43;101022.77;;;15.05;42.99
58979;BME280;44763;50.464;30.612;2022-09-09T08:14:11;101014.22;;;15.12;43.26
58979;BME280;44763;50.464;30.612;2022-09-09T08:16:40;101012.09;;;15.25;42.81
58979;BME280;44763;50.464;30.612;2022-09-09T08:19:11;101016.48;;;15.39;42.55
58979;BME280;44763;50.464;30.612;2022-09-09T08:21:40;100998.91;;;15.50;41.96
58979;BME280;44763;50.464;30.612;2022-09-09T08:24:08;101031.70;;;15.63;41.33
58979;BME280;44763;50.464;30.612;2022-09-09T08:26:38;101004.41;;;15.72;41.21
58979;BME280;44763;50.464;30.612;2022-09-09T08:29:10;100996.69;;;15.80;41.15
58979;BME280;44763;50.464;30.612;2022-09-09T08:31:40;100991.42;;;15.89;40.94
58979;BME280;44763;50.464;30.612;2022-09-09T08:34:08;101013.47;;;15.95;40.41
58979;BME280;44763;50.464;30.612;2022-09-09T08:36:43;101004.55;;;15.95;39.66
58979;BME280;44763;50.464;30.612;2022-09-09T08:39:10;100998.66;;;15.89;39.64
58979;BME280;44763;50.464;30.612;2022-09-09T08:50:20;101003.52;;;15.96;38.65
58979;BME280;44763;50.464;30.612;2022-09-09T08:53:11;100993.19;;;16.00;38.46
58979;BME280;44763;50.464;30.612;2022-09-09T08:55:48;100989.04;;;16.04;38.49
58979;BME280;44763;50.464;30.612;2022-09-09T08:58:19;100997.52;;;16.07;38.54
58979;BME280;44763;50.464;30.612;2022-09-09T09:06:56;100974.02;;;16.19;38.84
58979;BME280;44763;50.464;30.612;2022-09-09T09:12:35;100970.25;;;16.40;38.81
58979;BME280;44763;50.464;30.612;2022-09-09T09:15:25;100968.23;;;16.58;38.07
58979;BME280;44763;50.464;30.612;2022-09-09T09:17:45;100979.69;;;16.69;37.80
58979;BME280;44763;50.464;30.612;2022-09-09T09:20:16;100970.54;;;16.77;37.69
58979;BME280;44763;50.464;30.612;2022-09-09T09:22:52;100966.48;;;16.83;37.69
58979;BME280;44763;50.464;30.612;2022-09-09T09:25:30;100944.92;;;16.90;37.58
58979;BME280;44763;50.464;30.612;2022-09-09T09:28:03;100947.07;;;16.97;37.56
58979;BME280;44763;50.464;30.612;2022-09-09T09:30:42;100958.72;;;17.07;37.51
58979;BME280;44763;50.464;30.612;2022-09-09T09:36:18;100979.59;;;17.11;36.24
58979;BME280;44763;50.464;30.612;2022-09-09T09:38:58;100978.30;;;17.05;35.99
58979;BME280;44763;50.464;30.612;2022-09-09T09:41:36;100958.66;;;16.98;36.53
58979;BME280;44763;50.464;30.612;2022-09-09T09:44:05;100990.98;;;16.98;36.57
58979;BME280;44763;50.464;30.612;2022-09-09T09:46:34;100964.52;;;17.04;36.16
58979;BME280;44763;50.464;30.612;2022-09-09T09:49:10;100964.52;;;17.04;36.16
58979;BME280;44763;50.464;30.612;2022-09-09T09:51:36;100973.47;;;17.13;36.15
58979;BME280;44763;50.464;30.612;2022-09-09T09:54:12;100953.84;;;17.22;35.52
58979;BME280;44763;50.464;30.612;2022-09-09T09:56:44;100959.52;;;17.23;34.74
58979;BME280;44763;50.464;30.612;2022-09-09T10:05:03;100958.36;;;17.28;34.86
58979;BME280;44763;50.464;30.612;2022-09-09T10:07:32;100954.92;;;17.30;35.23
58979;BME280;44763;50.464;30.612;2022-09-09T10:09:59;100978.19;;;17.41;34.24
58979;BME280;44763;50.464;30.612;2022-09-09T10:18:22;100959.19;;;17.45;33.70
58979;BME280;44763;50.464;30.612;2022-09-09T10:30:22;100960.32;;;17.71;33.42
58979;BME280;44763;50.464;30.612;2022-09-09T10:36:06;100948.79;;;17.74;33.32
58979;BME280;44763;50.464;30.612;2022-09-09T10:38:44;100941.75;;;17.82;33.58
58979;BME280;44763;50.464;30.612;2022-09-09T10:44:34;100951.87;;;18.02;33.10
58979;BME280;44763;50.464;30.612;2022-09-09T10:53:18;100960.19;;;18.10;32.23
58979;BME280;44763;50.464;30.612;2022-09-09T10:55:56;100944.16;;;18.15;31.89
58979;BME280;44763;50.464;30.612;2022-09-09T10:58:31;100961.03;;;18.11;32.35
58979;BME280;44763;50.464;30.612;2022-09-09T11:01:09;100933.35;;;17.97;32.85
58979;BME280;44763;50.464;30.612;2022-09-09T11:04:04;100947.20;;;17.91;33.10
58979;BME280;44763;50.464;30.612;2022-09-09T11:06:50;100951.63;;;17.95;32.43
58979;BME280;44763;50.464;30.612;2022-09-09T11:09:21;100951.13;;;17.95;32.14
58979;BME280;44763;50.464;30.612;2022-09-09T11:11:55;100954.09;;;17.87;31.91
58979;BME280;44763;50.464;30.612;2022-09-09T11:14:32;100937.31;;;17.85;32.20
58979;BME280;44763;50.464;30.612;2022-09-09T11:19:43;100930.42;;;17.89;32.99
58979;BME280;44763;50.464;30.612;2022-09-09T11:34:37;100934.41;;;17.96;33.22
58979;BME280;44763;50.464;30.612;2022-09-09T11:40:24;100940.24;;;17.93;33.27
58979;BME280;44763;50.464;30.612;2022-09-09T11:43:12;100950.21;;;17.92;33.34
58979;BME280;44763;50.464;30.612;2022-09-09T11:45:42;100946.91;;;17.90;33.27
58979;BME280;44763;50.464;30.612;2022-09-09T11:48:38;100956.73;;;17.94;33.10
58979;BME280;44763;50.464;30.612;2022-09-09T11:51:25;100940.56;;;17.94;33.04
58979;BME280;44763;50.464;30.612;2022-09-09T11:53:57;100947.16;;;17.98;32.74
58979;BME280;44763;50.464;30.612;2022-09-09T11:56:31;100956.97;;;18.01;32.75
58979;BME280;44763;50.464;30.612;2022-09-09T11:59:04;100933.90;;;18.05;32.44
58979;BME280;44763;50.464;30.612;2022-09-09T12:01:38;100918.31;;;18.07;32.17
58979;BME280;44763;50.464;30.612;2022-09-09T12:07:02;100929.92;;;18.08;31.99
58979;BME280;44763;50.464;30.612;2022-09-09T12:09:58;100911.34;;;18.09;32.06
58979;BME280;44763;50.464;30.612;2022-09-09T12:12:34;100931.36;;;18.11;32.01
58979;BME280;44763;50.464;30.612;2022-09-09T12:17:51;100914.11;;;18.12;31.63
58979;BME280;44763;50.464;30.612;2022-09-09T12:20:36;100904.82;;;18.07;32.02
58979;BME280;44763;50.464;30.612;2022-09-09T12:25:57;100914.94;;;17.94;32.34
58979;BME280;44763;50.464;30.612;2022-09-09T12:28:39;100907.66;;;17.94;32.41
58979;BME280;44763;50.464;30.612;2022-09-09T12:34:28;100911.64;;;17.92;32.08
58979;BME280;44763;50.464;30.612;2022-09-09T12:37:04;100925.34;;;17.90;32.18
58979;BME280;44763;50.464;30.612;2022-09-09T12:39:36;100937.63;;;17.86;32.24
58979;BME280;44763;50.464;30.612;2022-09-09T12:42:17;100925.58;;;17.82;32.11
58979;BME280;44763;50.464;30.612;2022-09-09T12:45:00;100928.56;;;17.74;32.75
58979;BME280;44763;50.464;30.612;2022-09-09T12:47:39;100939.35;;;17.74;32.49
58979;BME280;44763;50.464;30.612;2022-09-09T12:50:15;100934.78;;;17.74;32.53
58979;BME280;44763;50.464;30.612;2022-09-09T12:52:50;100932.83;;;17.72;32.35
58979;BME280;44763;50.464;30.612;2022-09-09T12:55:23;100932.22;;;17.70;32.39
58979;BME280;44763;50.464;30.612;2022-09-09T12:57:52;100919.56;;;17.70;32.46
58979;BME280;44763;50.464;30.612;2022-09-09T13:00:22;100931.27;;;17.74;32.25
58979;BME280;44763;50.464;30.612;2022-09-09T13:02:55;100920.05;;;17.77;32.33
58979;BME280;44763;50.464;30.612;2022-09-09T13:05:25;100917.95;;;17.79;32.20
58979;BME280;44763;50.464;30.612;2022-09-09T13:08:08;100924.98;;;17.80;31.86
58979;BME280;44763;50.464;30.612;2022-09-09T13:10:44;100906.10;;;17.80;32.08
58979;BME280;44763;50.464;30.612;2022-09-09T13:13:21;100914.55;;;17.74;32.27
58979;BME280;44763;50.464;30.612;2022-09-09T13:15:52;100912.69;;;17.65;32.11
58979;BME280;44763;50.464;30.612;2022-09-09T13:18:22;100909.77;;;17.67;32.59
58979;BME280;44763;50.464;30.612;2022-09-09T13:20:50;100909.77;;;17.67;32.59
58979;BME280;44763;50.464;30.612;2022-09-09T13:23:19;100929.75;;;17.68;32.40
58979;BME280;44763;50.464;30.612;2022-09-09T13:25:56;100930.06;;;17.69;32.30
58979;BME280;44763;50.464;30.612;2022-09-09T13:28:26;100925.10;;;17.66;32.39
58979;BME280;44763;50.464;30.612;2022-09-09T13:31:00;100921.73;;;17.62;32.37
58979;BME280;44763;50.464;30.612;2022-09-09T13:33:31;100916.48;;;17.58;32.43
58979;BME280;44763;50.464;30.612;2022-09-09T13:36:06;100936.38;;;17.57;32.44
58979;BME280;44763;50.464;30.612;2022-09-09T13:41:24;100928.37;;;17.50;32.39
58979;BME280;44763;50.464;30.612;2022-09-09T13:44:03;100920.92;;;17.45;32.34
58979;BME280;44763;50.464;30.612;2022-09-09T13:46:40;100918.69;;;17.42;32.79
58979;BME280;44763;50.464;30.612;2022-09-09T13:51:44;100943.77;;;17.43;33.01
58979;BME280;44763;50.464;30.612;2022-09-09T13:54:14;100928.41;;;17.43;33.03
58979;BME280;44763;50.464;30.612;2022-09-09T13:56:42;100933.20;;;17.41;32.90
58979;BME280;44763;50.464;30.612;2022-09-09T13:59:15;100924.65;;;17.35;32.97
58979;BME280;44763;50.464;30.612;2022-09-09T14:01:42;100919.16;;;17.32;32.70
58979;BME280;44763;50.464;30.612;2022-09-09T14:04:09;100919.16;;;17.32;32.70
58979;BME280;44763;50.464;30.612;2022-09-09T14:06:38;100926.50;;;17.35;33.00
58979;BME280;44763;50.464;30.612;2022-09-09T14:09:06;100929.19;;;17.35;33.00
58979;BME280;44763;50.464;30.612;2022-09-09T14:11:34;100934.58;;;17.35;33.22
58979;BME280;44763;50.464;30.612;2022-09-09T14:14:00;100918.34;;;17.32;32.92
58979;BME280;44763;50.464;30.612;2022-09-09T14:16:26;100923.94;;;17.30;33.02
58979;BME280;44763;50.464;30.612;2022-09-09T14:18:54;100924.47;;;17.30;33.10
58979;BME280;44763;50.464;30.612;2022-09-09T14:21:22;100907.27;;;17.31;32.71
58979;BME280;44763;50.464;30.612;2022-09-09T14:23:48;100907.27;;;17.31;32.71
58979;BME280;44763;50.464;30.612;2022-09-09T14:26:14;100920.22;;;17.31;32.87
58979;BME280;44763;50.464;30.612;2022-09-09T14:28:40;100912.34;;;17.30;32.65
58979;BME280;44763;50.464;30.612;2022-09-09T14:31:07;100901.78;;;17.28;32.62
58979;BME280;44763;50.464;30.612;2022-09-09T14:33:33;100896.46;;;17.22;32.59
58979;BME280;44763;50.464;30.612;2022-09-09T14:36:03;100905.50;;;17.18;32.88
58979;BME280;44763;50.464;30.612;2022-09-09T14:38:31;100905.50;;;17.18;32.88
58979;BME280;44763;50.464;30.612;2022-09-09T14:42:42;100892.31;;;17.19;32.75
58979;BME280;44763;50.464;30.612;2022-09-09T14:45:08;100889.16;;;17.13;33.00
58979;BME280;44763;50.464;30.612;2022-09-09T14:47:35;100888.13;;;17.14;33.12
58979;BME280;44763;50.464;30.612;2022-09-09T14:50:02;100891.11;;;17.15;33.08
58979;BME280;44763;50.464;30.612;2022-09-09T14:52:30;100886.46;;;17.13;33.22
58979;BME280;44763;50.464;30.612;2022-09-09T14:54:57;100906.88;;;17.11;33.28
58979;BME280;44763;50.464;30.612;2022-09-09T14:57:23;100904.39;;;17.10;33.44
58979;BME280;44763;50.464;30.612;2022-09-09T14:59:49;100887.13;;;17.08;33.40
58979;BME280;44763;50.464;30.612;2022-09-09T15:02:15;100878.27;;;17.01;33.54
58979;BME280;44763;50.464;30.612;2022-09-09T15:04:42;100890.67;;;17.02;33.57
58979;BME280;44763;50.464;30.612;2022-09-09T15:07:10;100876.81;;;16.99;33.67
58979;BME280;44763;50.464;30.612;2022-09-09T15:09:36;100887.69;;;17.01;33.73
58979;BME280;44763;50.464;30.612;2022-09-09T15:12:03;100887.69;;;17.01;33.73
58979;BME280;44763;50.464;30.612;2022-09-09T15:14:31;100890.98;;;17.03;33.94
58979;BME280;44763;50.464;30.612;2022-09-09T15:16:57;100890.98;;;17.03;33.94
58979;BME280;44763;50.464;30.612;2022-09-09T15:19:23;100895.23;;;17.02;34.02
58979;BME280;44763;50.464;30.612;2022-09-09T15:21:49;100897.33;;;17.00;34.24
58979;BME280;44763;50.464;30.612;2022-09-09T15:24:15;100910.19;;;16.98;34.33
58979;BME280;44763;50.464;30.612;2022-09-09T15:26:41;100903.88;;;16.95;34.62
58979;BME280;44763;50.464;30.612;2022-09-09T15:29:08;100903.88;;;16.95;34.62
58979;BME280;44763;50.464;30.612;2022-09-09T15:31:35;100903.27;;;16.92;34.96
58979;BME280;44763;50.464;30.612;2022-09-09T15:34:04;100908.79;;;16.88;35.16
58979;BME280;44763;50.464;30.612;2022-09-09T15:39:04;100916.26;;;16.86;35.30
58979;BME280;44763;50.464;30.612;2022-09-09T15:41:37;100924.76;;;16.83;35.60